Time;durP1;ratioP1;P1;durP2;ratioP2;P2;SDS_P1;SDS_P2;PMS_P1;PMS_P2;Temp;Humidity;BMP_temperature;BMP_pressure;BME280_temperature;BME280_humidity;BME280_pressure;Samples;Min_cycle;Max_cycle;Signal;HPM_P1;HPM_P2
2023/01/07 00:01:11;;;;;;;10.50;6.25;;;;;;;10.67;61.63;101620.78;5115770;28;20124;-89
2023/01/07 00:03:37;;;;;;;9.52;5.75;;;;;;;10.52;62.41;101606.50;5113748;28;20092;-91
2023/01/07 00:06:08;;;;;;;11.25;5.20;;;;;;;10.61;62.12;101605.06;5095289;28;20020;-88
2023/01/07 00:08:38;;;;;;;6.55;5.03;;;;;;;10.65;62.00;101623.56;5096023;28;20020;-90
2023/01/07 00:11:06;;;;;;;13.05;5.20;;;;;;;10.60;61.81;101631.09;5116771;28;20016;-89
2023/01/07 00:13:32;;;;;;;6.43;4.90;;;;;;;10.65;61.67;101626.25;5115339;28;20059;-88
2023/01/07 00:16:03;;;;;;;7.45;4.57;;;;;;;10.66;60.10;101630.69;5114207;28;20395;-90
2023/01/07 00:18:30;;;;;;;9.00;4.47;;;;;;;10.63;60.49;101635.41;5114893;28;20106;-88
2023/01/07 00:20:59;;;;;;;8.95;4.28;;;;;;;10.59;60.79;101642.81;5114460;28;20031;-87
2023/01/07 00:23:26;;;;;;;4.93;3.97;;;;;;;10.66;61.09;101648.66;5114604;28;20057;-88
2023/01/07 00:25:58;;;;;;;7.07;4.68;;;;;;;10.62;61.10;101653.38;5114557;28;20028;-90
2023/01/07 00:28:24;;;;;;;6.82;4.75;;;;;;;10.71;61.05;101651.91;5114111;28;20034;-87
2023/01/07 00:30:49;;;;;;;8.93;4.35;;;;;;;10.82;60.41;101658.28;5114686;28;20024;-88
2023/01/07 00:33:16;;;;;;;12.13;4.90;;;;;;;10.84;60.09;101656.38;5114350;28;20020;-90
2023/01/07 00:35:43;;;;;;;7.80;4.75;;;;;;;10.81;60.15;101644.94;5116466;28;20348;-89
2023/01/07 00:38:10;;;;;;;7.30;4.57;;;;;;;10.97;59.65;101660.94;5114721;28;20038;-87
2023/01/07 00:40:36;;;;;;;5.00;4.28;;;;;;;10.92;59.27;101667.50;5095713;28;20102;-90
2023/01/07 00:43:05;;;;;;;8.25;4.18;;;;;;;10.86;58.92;101653.56;5113969;28;20023;-91
2023/01/07 00:45:35;;;;;;;7.15;5.13;;;;;;;10.97;59.16;101666.34;5114216;28;20112;-89
2023/01/07 00:48:03;;;;;;;6.18;4.68;;;;;;;11.04;58.73;101663.13;5117570;28;20024;-88
2023/01/07 00:50:32;;;;;;;9.50;4.82;;;;;;;11.10;57.92;101661.88;5113701;28;20036;-87
2023/01/07 00:52:57;;;;;;;5.20;3.85;;;;;;;11.10;58.42;101651.09;5096240;28;20115;-87
2023/01/07 00:55:24;;;;;;;6.38;3.95;;;;;;;11.20;58.28;101668.34;5113972;28;20059;-89
2023/01/07 00:57:50;;;;;;;9.95;4.60;;;;;;;11.16;57.63;101667.69;5114210;28;20135;-88
2023/01/07 01:00:18;;;;;;;6.18;4.32;;;;;;;11.20;57.26;101658.44;5071508;28;20047;-89
2023/01/07 01:03:03;;;;;;;6.40;4.32;;;;;;;11.13;57.35;101661.66;5071080;28;20550;-87
2023/01/07 01:05:31;;;;;;;7.60;4.80;;;;;;;11.21;57.70;101668.25;5070364;28;20052;-87
2023/01/07 01:07:58;;;;;;;6.45;4.82;;;;;;;11.27;57.62;101664.28;5038269;28;20069;-87
2023/01/07 01:10:23;;;;;;;10.70;4.32;;;;;;;11.27;56.82;101669.66;5070552;28;20064;-88
2023/01/07 01:12:49;;;;;;;13.45;4.72;;;;;;;11.37;56.70;101681.53;5071142;28;20092;-89
2023/01/07 01:15:15;;;;;;;8.32;5.13;;;;;;;11.42;56.44;101669.47;5073476;28;20361;-86
2023/01/07 01:17:41;;;;;;;10.73;4.82;;;;;;;11.36;57.18;101674.41;5074944;28;20045;-89
2023/01/07 01:20:10;;;;;;;10.43;4.80;;;;;;;11.39;57.40;101671.53;5075503;28;20059;-90
2023/01/07 01:22:35;;;;;;;6.93;4.97;;;;;;;11.31;57.49;101674.72;5072086;28;20041;-87
2023/01/07 01:25:01;;;;;;;7.18;4.80;;;;;;;11.27;57.96;101658.88;5071793;28;20166;-87
2023/01/07 01:27:29;;;;;;;15.23;4.55;;;;;;;11.22;57.64;101671.81;5055023;28;20029;-88
2023/01/07 01:29:54;;;;;;;8.50;4.95;;;;;;;11.24;57.96;101670.72;5071583;28;20032;-89
2023/01/07 01:32:20;;;;;;;9.00;4.78;;;;;;;11.36;56.93;101682.50;5074014;28;20062;-90
2023/01/07 01:34:45;;;;;;;7.18;4.30;;;;;;;11.30;56.94;101674.84;5110321;28;20042;-89
2023/01/07 01:37:11;;;;;;;5.53;4.00;;;;;;;11.36;57.27;101674.41;5114651;28;20097;-90
2023/01/07 01:39:36;;;;;;;7.35;4.88;;;;;;;11.40;56.96;101673.25;5114405;28;20032;-89
2023/01/07 01:42:02;;;;;;;4.93;4.00;;;;;;;11.54;56.56;101688.47;5114843;28;20032;-91
2023/01/07 01:44:50;;;;;;;5.40;3.72;;;;;;;11.45;56.70;101673.78;5114831;28;20019;-88
2023/01/07 01:47:24;;;;;;;5.32;4.25;;;;;;;11.45;56.58;101671.09;5114915;28;20034;-90
2023/01/07 01:50:16;;;;;;;10.45;4.45;;;;;;;11.47;56.90;101650.28;5121082;28;20510;-90
2023/01/07 01:52:54;;;;;;;10.70;4.15;;;;;;;11.42;56.83;101655.16;5096351;28;20047;-90
2023/01/07 01:55:26;;;;;;;5.43;4.30;;;;;;;11.30;57.47;101642.53;5114391;28;20264;-88
2023/01/07 01:57:57;;;;;;;9.02;3.78;;;;;;;11.28;57.79;101650.69;5115068;28;20072;-89
2023/01/07 02:00:22;;;;;;;5.75;3.60;;;;;;;11.17;58.36;101647.00;5115714;28;20019;-89
2023/01/07 02:02:53;;;;;;;9.32;3.88;;;;;;;11.18;58.05;101644.22;5117902;28;20106;-88
2023/01/07 02:05:20;;;;;;;12.35;4.40;;;;;;;11.23;58.29;101651.97;5114494;28;20486;-88
2023/01/07 02:07:45;;;;;;;9.13;4.13;;;;;;;11.30;57.55;101648.78;5114350;28;20483;-88
2023/01/07 02:10:15;;;;;;;14.45;5.18;;;;;;;11.33;58.50;101642.31;5114810;28;20034;-89
2023/01/07 02:13:16;;;;;;;5.88;4.20;;;;;;;11.27;57.68;101651.69;5114220;28;20080;-89
2023/01/07 02:16:17;;;;;;;8.80;3.90;;;;;;;11.27;57.84;101653.50;5110474;28;20107;-89
2023/01/07 02:19:06;;;;;;;11.15;4.50;;;;;;;11.26;57.88;101649.94;5095744;28;20030;-90
2023/01/07 02:21:44;;;;;;;8.30;4.63;;;;;;;11.26;58.54;101647.25;5031373;28;20068;-90
2023/01/07 02:24:43;;;;;;;6.57;3.83;;;;;;;11.24;59.04;101648.31;5014710;28;20037;-89
2023/01/07 02:27:22;;;;;;;8.25;3.97;;;;;;;11.18;58.45;101628.06;5047098;28;20052;-85
2023/01/07 02:30:18;;;;;;;10.55;3.25;;;;;;;11.09;58.77;101628.69;5052083;28;20026;-87
2023/01/07 02:32:51;;;;;;;7.65;3.70;;;;;;;11.06;59.44;101631.59;5045303;28;20030;-87
2023/01/07 02:35:19;;;;;;;9.50;4.50;;;;;;;11.03;59.31;101645.25;5032662;28;20037;-89
2023/01/07 02:38:20;;;;;;;13.10;6.65;;;;;;;10.99;59.49;101643.72;5031641;28;20083;-88
2023/01/07 02:41:00;;;;;;;6.97;3.70;;;;;;;10.92;59.43;101643.25;5031738;28;20037;-89
2023/01/07 02:43:36;;;;;;;6.97;3.58;;;;;;;10.78;60.24;101635.25;5031960;28;20227;-87
2023/01/07 02:46:11;;;;;;;6.75;3.55;;;;;;;10.62;60.94;101634.53;5032357;28;20491;-90
2023/01/07 02:48:38;;;;;;;10.20;3.80;;;;;;;10.58;61.15;101638.38;5033624;28;20064;-88
2023/01/07 02:51:03;;;;;;;8.70;4.07;;;;;;;10.54;61.77;101628.81;5037027;28;20524;-88
2023/01/07 02:53:30;;;;;;;6.90;4.15;;;;;;;10.50;61.66;101626.41;5038017;28;20109;-87
2023/01/07 02:56:08;;;;;;;4.97;3.47;;;;;;;10.49;62.10;101633.59;5044482;28;20025;-86
2023/01/07 02:58:33;;;;;;;5.28;3.67;;;;;;;10.39;62.30;101632.50;5098766;28;20027;-88
2023/01/07 03:01:16;;;;;;;7.13;3.97;;;;;;;10.40;62.10;101620.75;5135648;28;20027;-88
2023/01/07 03:04:16;;;;;;;6.00;3.72;;;;;;;10.45;62.89;101629.41;5102205;28;20111;-88
2023/01/07 03:07:22;;;;;;;9.55;4.13;;;;;;;10.43;62.80;101625.94;5125416;28;20020;-90
2023/01/07 03:10:00;;;;;;;8.82;4.47;;;;;;;10.41;62.85;101627.88;4995023;28;20452;-87
2023/01/07 03:12:48;;;;;;;5.35;3.97;;;;;;;10.40;63.11;101614.53;5010882;28;20030;-89
2023/01/07 03:15:21;;;;;;;26.00;4.63;;;;;;;10.45;63.50;101620.47;5012274;28;20508;-90
2023/01/07 03:17:53;;;;;;;12.32;5.22;;;;;;;10.52;62.74;101633.41;5010195;28;20044;-88
2023/01/07 03:20:21;;;;;;;;;;;;;;;10.55;62.66;101629.66;5010239;28;20128;-89
2023/01/07 03:22:48;;;;;;;10.65;3.60;;;;;;;10.55;62.29;101617.06;5009811;28;19913;-89
2023/01/07 03:25:16;;;;;;;7.60;3.78;;;;;;;10.61;62.21;101631.97;5009849;28;20117;-88
2023/01/07 03:27:44;;;;;;;10.25;4.05;;;;;;;10.58;62.17;101619.53;5009867;28;20033;-88
2023/01/07 03:30:13;;;;;;;9.50;4.22;;;;;;;10.61;62.91;101631.97;5009669;28;20033;-86
2023/01/07 03:32:48;;;;;;;12.63;4.47;;;;;;;10.55;62.39;101625.13;5018655;28;20033;-90
2023/01/07 03:35:14;;;;;;;14.48;4.28;;;;;;;10.58;62.30;101633.00;5018325;28;20478;-88
2023/01/07 03:37:41;;;;;;;8.52;4.00;;;;;;;10.57;62.14;101635.81;4992816;28;20037;-89
2023/01/07 03:40:09;;;;;;;8.50;3.92;;;;;;;10.45;62.21;101632.09;5009601;28;20049;-90
2023/01/07 03:42:39;;;;;;;15.75;9.55;;;;;;;10.40;62.07;101642.25;5008508;28;20512;-87
2023/01/07 03:45:11;;;;;;;14.02;7.78;;;;;;;10.37;62.21;101629.00;5021078;28;20033;-89
2023/01/07 03:47:40;;;;;;;15.55;7.18;;;;;;;10.43;62.17;101643.91;5093765;28;20478;-88
2023/01/07 03:50:06;;;;;;;13.02;5.72;;;;;;;10.40;62.15;101639.56;5112186;28;20043;-89
2023/01/07 03:52:31;;;;;;;11.95;5.85;;;;;;;10.34;62.07;101637.28;5111677;28;20044;-88
2023/01/07 03:54:57;;;;;;;20.88;5.57;;;;;;;10.30;62.18;101638.47;5111644;28;20034;-89
2023/01/07 03:57:22;;;;;;;8.75;4.22;;;;;;;10.30;62.27;101625.84;5111791;28;20027;-88
2023/01/07 03:59:48;;;;;;;15.75;5.78;;;;;;;10.26;62.11;101631.53;5111696;28;20032;-87
2023/01/07 04:02:13;;;;;;;23.65;6.97;;;;;;;10.17;62.33;101643.75;5112006;28;20031;-89
2023/01/07 04:04:38;;;;;;;19.50;7.80;;;;;;;10.21;62.58;101639.88;5093875;28;20028;-91
2023/01/07 04:07:04;;;;;;;29.55;9.13;;;;;;;10.23;62.62;101645.19;5111905;28;20028;-87
2023/01/07 04:09:29;;;;;;;26.77;10.98;;;;;;;10.11;62.63;101633.34;5093550;28;20032;-89
2023/01/07 04:11:55;;;;;;;22.58;9.85;;;;;;;10.16;62.60;101635.78;5094210;28;20500;-87
2023/01/07 04:14:20;;;;;;;20.88;8.10;;;;;;;10.08;62.71;101630.00;5111780;28;20024;-89
2023/01/07 04:16:46;;;;;;;16.77;8.75;;;;;;;9.98;63.20;101623.47;5116527;28;20402;-88
2023/01/07 04:19:11;;;;;;;22.25;7.82;;;;;;;9.95;63.38;101624.53;5111303;28;20027;-90
2023/01/07 04:21:37;;;;;;;23.92;6.00;;;;;;;9.94;63.57;101635.38;5111256;28;20032;-89
2023/01/07 04:24:02;;;;;;;16.27;5.78;;;;;;;9.93;63.18;101639.91;5110905;28;20119;-89
2023/01/07 04:26:28;;;;;;;30.80;5.93;;;;;;;9.85;63.21;101632.28;5111426;28;20078;-88
2023/01/07 04:28:53;;;;;;;10.25;6.03;;;;;;;9.87;63.73;101639.41;5110738;28;20019;-85
2023/01/07 04:31:19;;;;;;;18.55;7.35;;;;;;;9.89;63.85;101642.84;5110553;28;20848;-85
2023/01/07 04:33:44;;;;;;;13.35;6.10;;;;;;;9.84;63.75;101635.09;5110561;28;20046;-83
2023/01/07 04:36:12;;;;;;;17.55;5.85;;;;;;;9.83;63.21;101630.66;5110360;28;20034;-85
2023/01/07 04:38:37;;;;;;;17.40;5.45;;;;;;;9.77;63.67;101628.38;5110739;28;20034;-87
2023/01/07 04:41:03;;;;;;;14.80;5.95;;;;;;;9.71;63.76;101639.50;5110716;28;20107;-84
2023/01/07 04:43:28;;;;;;;10.25;6.07;;;;;;;9.60;63.81;101641.97;5110481;28;20024;-85
2023/01/07 04:45:53;;;;;;;7.07;5.32;;;;;;;9.58;64.20;101647.44;5110329;28;20398;-87
2023/01/07 04:48:19;;;;;;;9.27;4.75;;;;;;;9.63;64.41;101655.22;5110238;28;20665;-85
2023/01/07 04:50:46;;;;;;;15.82;5.32;;;;;;;9.61;64.71;101649.94;5111699;28;20060;-86
2023/01/07 04:53:11;;;;;;;14.45;6.00;;;;;;;9.62;64.43;101634.69;5111640;28;20077;-86
2023/01/07 04:55:37;;;;;;;19.15;6.13;;;;;;;9.59;64.65;101645.63;5110062;28;20339;-85
2023/01/07 04:58:03;;;;;;;20.05;7.53;;;;;;;9.58;64.56;101638.50;5109779;28;20099;-84
2023/01/07 05:00:28;;;;;;;15.52;7.22;;;;;;;9.64;64.36;101649.75;5110017;28;20028;-82
2023/01/07 05:02:53;;;;;;;28.10;8.43;;;;;;;9.63;64.63;101639.94;5110117;28;20480;-83
2023/01/07 05:05:19;;;;;;;19.23;8.93;;;;;;;9.65;64.45;101640.75;5110216;28;20386;-83
2023/01/07 05:07:45;;;;;;;22.35;9.18;;;;;;;9.67;64.43;101632.56;5112393;28;20031;-82
2023/01/07 05:10:10;;;;;;;21.33;8.05;;;;;;;9.60;64.64;101631.25;5109779;28;20169;-82
2023/01/07 05:12:36;;;;;;;30.42;7.95;;;;;;;9.63;64.54;101633.75;5110014;28;20023;-91
2023/01/07 05:15:03;;;;;;;18.50;6.53;;;;;;;9.56;64.44;101630.56;5110322;28;20023;-88
2023/01/07 05:17:29;;;;;;;13.90;6.68;;;;;;;9.52;64.37;101629.00;5110132;28;20108;-77
2023/01/07 05:19:54;;;;;;;20.52;7.28;;;;;;;9.48;64.51;101638.19;5106467;28;20057;-80
2023/01/07 05:22:19;;;;;;;20.17;7.13;;;;;;;9.37;64.15;101632.63;5109986;28;20110;-77
2023/01/07 05:24:45;;;;;;;20.85;8.70;;;;;;;9.40;64.40;101632.44;5109792;28;20027;-81
2023/01/07 05:27:10;;;;;;;32.33;8.88;;;;;;;9.40;64.16;101623.50;5109687;28;20084;-82
2023/01/07 05:29:36;;;;;;;35.53;9.73;;;;;;;9.38;63.91;101637.06;5110359;28;20038;-85
2023/01/07 05:32:01;;;;;;;33.05;8.45;;;;;;;9.27;63.66;101639.50;5110687;28;20020;-86
2023/01/07 05:34:27;;;;;;;27.58;9.13;;;;;;;9.13;64.13;101643.03;5110482;28;20030;-82
2023/01/07 05:36:52;;;;;;;35.47;8.73;;;;;;;9.08;64.38;101644.25;5110410;28;20031;-86
2023/01/07 05:39:18;;;;;;;44.55;8.20;;;;;;;9.09;64.50;101641.47;5110228;28;20023;-82
2023/01/07 05:41:43;;;;;;;52.55;10.20;;;;;;;9.01;64.83;101637.50;5110110;28;20028;-79
2023/01/07 05:44:08;;;;;;;56.17;9.65;;;;;;;8.98;64.98;101649.28;5109920;28;20028;-78
2023/01/07 05:46:34;;;;;;;28.77;7.78;;;;;;;8.96;65.26;101644.97;5109986;28;20482;-79
2023/01/07 05:48:59;;;;;;;28.15;9.20;;;;;;;8.90;64.91;101640.81;5109798;28;20027;-78
2023/01/07 05:51:25;;;;;;;54.83;8.70;;;;;;;8.77;65.51;101623.72;5109700;28;20051;-87
2023/01/07 05:53:50;;;;;;;65.07;10.82;;;;;;;8.71;65.84;101646.38;5110223;28;20031;-84
2023/01/07 05:56:16;;;;;;;46.97;10.18;;;;;;;8.71;65.85;101645.53;5109625;28;20098;-81
2023/01/07 05:58:41;;;;;;;51.92;9.95;;;;;;;8.62;66.28;101636.16;5109767;28;20054;-85
2023/01/07 06:01:06;;;;;;;52.30;8.65;;;;;;;8.63;66.17;101635.22;5110238;28;20020;-85
2023/01/07 06:03:32;;;;;;;57.05;8.20;;;;;;;8.69;66.15;101648.28;5110169;28;20039;-84
2023/01/07 06:05:57;;;;;;;46.13;9.43;;;;;;;8.66;66.16;101645.78;5112004;28;20024;-81
2023/01/07 06:08:23;;;;;;;63.05;11.30;;;;;;;8.48;66.47;101629.88;5113618;28;20080;-84
2023/01/07 06:10:48;;;;;;;69.78;10.98;;;;;;;8.51;66.95;101649.31;5113285;28;20387;-82
2023/01/07 06:13:14;;;;;;;59.85;9.48;;;;;;;8.48;67.08;101652.19;5113089;28;20125;-83
2023/01/07 06:15:39;;;;;;;53.22;9.82;;;;;;;8.48;67.13;101654.88;5113283;28;20645;-83
2023/01/07 06:18:05;;;;;;;49.65;9.35;;;;;;;8.59;67.44;101665.84;5113484;28;20023;-83
2023/01/07 06:20:33;;;;;;;51.78;8.38;;;;;;;8.48;67.46;101657.53;5114064;28;20034;-82
2023/01/07 06:23:01;;;;;;;56.50;9.68;;;;;;;8.51;68.08;101653.81;5113368;28;20023;-82
2023/01/07 06:25:28;;;;;;;44.35;8.38;;;;;;;8.61;68.04;101668.44;5113339;28;20031;-82
2023/01/07 06:27:56;;;;;;;39.42;8.75;;;;;;;8.52;68.45;101661.78;5113591;28;20481;-82
2023/01/07 06:30:21;;;;;;;48.95;9.25;;;;;;;8.54;68.34;101665.25;5113736;28;20100;-84
2023/01/07 06:32:47;;;;;;;39.15;10.88;;;;;;;8.51;68.92;101670.78;5113705;28;20015;-83
2023/01/07 06:35:12;;;;;;;63.05;13.55;;;;;;;8.46;68.98;101662.13;5095077;28;20028;-83
2023/01/07 06:37:38;;;;;;;46.78;11.25;;;;;;;8.51;69.07;101648.47;5113470;28;20030;-82
2023/01/07 06:40:04;;;;;;;49.30;8.93;;;;;;;8.70;69.13;101666.13;5113206;28;20035;-83
2023/01/07 06:42:29;;;;;;;32.22;8.43;;;;;;;8.73;68.80;101649.84;5113405;28;20023;-82
2023/01/07 06:44:55;;;;;;;55.45;9.98;;;;;;;8.72;68.49;101653.47;5113556;28;20101;-82
2023/01/07 06:47:20;;;;;;;54.28;11.35;;;;;;;8.95;69.00;101660.19;5113455;28;20477;-83
2023/01/07 06:49:46;;;;;;;57.92;24.08;;;;;;;8.98;68.61;101667.19;5113403;28;20028;-82
2023/01/07 06:52:11;;;;;;;64.53;19.77;;;;;;;9.02;69.37;101655.34;5121817;28;20035;-83
2023/01/07 06:54:37;;;;;;;54.33;19.27;;;;;;;9.16;68.75;101663.44;5122108;28;20027;-82
2023/01/07 06:57:02;;;;;;;65.50;24.50;;;;;;;9.26;68.97;101665.47;5126063;28;20023;-82
2023/01/07 06:59:28;;;;;;;52.88;23.17;;;;;;;9.22;68.76;101650.53;5123764;28;20027;-83
2023/01/07 07:01:53;;;;;;;64.80;23.40;;;;;;;9.22;68.77;101646.97;5116548;28;20039;-82
2023/01/07 07:04:19;;;;;;;61.53;24.70;;;;;;;9.51;68.81;101675.59;5116494;28;20123;-82
2023/01/07 07:06:44;;;;;;;46.95;22.60;;;;;;;9.61;68.38;101658.00;5115182;28;20023;-83
2023/01/07 07:09:10;;;;;;;49.75;21.60;;;;;;;9.66;68.23;101663.09;5112997;28;20031;-82
2023/01/07 07:11:35;;;;;;;58.40;20.80;;;;;;;9.74;68.04;101668.84;5112714;28;20490;-83
2023/01/07 07:14:02;;;;;;;59.28;24.27;;;;;;;9.80;67.87;101669.34;5112778;28;20027;-83
2023/01/07 07:16:28;;;;;;;41.70;19.52;;;;;;;9.94;67.73;101673.00;5112565;28;20026;-84
2023/01/07 07:18:53;;;;;;;23.25;11.27;;;;;;;9.95;67.43;101655.91;5112984;28;20027;-82
2023/01/07 07:21:19;;;;;;;38.90;14.63;;;;;;;10.09;67.62;101669.38;5112588;28;20020;-82
2023/01/07 07:23:44;;;;;;;40.13;15.68;;;;;;;10.14;67.13;101667.28;5093360;28;20031;-82
2023/01/07 07:26:10;;;;;;;28.50;13.90;;;;;;;10.28;67.28;101668.13;5112019;28;20470;-83
2023/01/07 07:28:36;;;;;;;25.80;11.05;;;;;;;10.30;66.81;101657.28;5111953;28;20031;-82
2023/01/07 07:31:02;;;;;;;26.48;10.55;;;;;;;10.38;66.75;101654.97;5112227;28;20029;-84
2023/01/07 07:33:27;;;;;;;13.50;5.63;;;;;;;10.53;66.39;101661.16;5112068;28;20024;-83
2023/01/07 07:35:54;;;;;;;12.43;3.85;;;;;;;10.53;66.69;101653.97;5112223;28;20077;-86
2023/01/07 07:38:20;;;;;;;13.63;6.10;;;;;;;10.55;66.54;101637.75;5092385;28;20048;-84
2023/01/07 07:40:46;;;;;;;17.77;5.90;;;;;;;10.74;66.54;101659.75;5111566;28;20035;-84
2023/01/07 07:43:12;;;;;;;13.15;4.97;;;;;;;10.80;66.35;101657.53;5111507;28;20024;-83
2023/01/07 07:45:37;;;;;;;14.05;7.80;;;;;;;10.85;66.24;101651.88;5111512;28;20020;-84
2023/01/07 07:48:06;;;;;;;12.52;5.70;;;;;;;10.78;66.11;101645.16;5111346;28;20148;-83
2023/01/07 07:50:32;;;;;;;27.73;7.63;;;;;;;10.78;66.24;101635.25;5111599;28;20027;-84
2023/01/07 07:52:58;;;;;;;21.80;6.30;;;;;;;10.93;65.73;101653.06;5111539;28;20544;-82
2023/01/07 07:55:23;;;;;;;27.75;8.57;;;;;;;10.95;65.29;101642.19;5092456;28;20119;-83
2023/01/07 07:57:48;;;;;;;17.63;7.38;;;;;;;10.99;65.50;101634.78;5111473;28;20031;-82
2023/01/07 08:00:14;;;;;;;21.33;6.28;;;;;;;11.02;65.80;101651.59;5111207;28;20027;-84
2023/01/07 08:02:40;;;;;;;16.40;6.13;;;;;;;11.02;64.92;101631.88;5111588;28;20038;-83
2023/01/07 08:05:05;;;;;;;18.98;7.70;;;;;;;11.13;65.88;101640.13;5111192;28;20027;-84
2023/01/07 08:07:31;;;;;;;16.95;8.00;;;;;;;11.15;64.97;101628.28;5111254;28;20072;-83
2023/01/07 08:09:56;;;;;;;22.60;9.02;;;;;;;11.34;64.63;101644.03;5110937;28;20050;-83
2023/01/07 08:12:21;;;;;;;17.77;7.68;;;;;;;11.34;64.85;101622.50;5111060;28;20027;-83
2023/01/07 08:14:47;;;;;;;12.98;6.38;;;;;;;11.49;64.57;101648.38;5111576;28;20061;-84
2023/01/07 08:17:13;;;;;;;16.92;5.90;;;;;;;11.48;64.09;101636.72;5111151;28;20083;-85
2023/01/07 08:19:38;;;;;;;13.43;5.35;;;;;;;11.55;64.46;101637.19;5111102;28;20023;-84
2023/01/07 08:22:04;;;;;;;27.25;7.55;;;;;;;11.57;64.46;101639.75;5107926;28;20076;-84
2023/01/07 08:24:29;;;;;;;22.90;7.22;;;;;;;11.67;64.40;101643.53;5110408;28;20046;-83
2023/01/07 08:26:55;;;;;;;15.38;7.00;;;;;;;11.74;63.75;101653.81;5110797;28;20024;-83
2023/01/07 08:29:21;;;;;;;15.10;7.25;;;;;;;11.78;63.79;101644.53;5110038;28;20419;-82
2023/01/07 08:31:47;;;;;;;18.70;5.20;;;;;;;11.90;63.36;101650.91;5110707;28;20398;-83
2023/01/07 08:34:13;;;;;;;16.23;6.78;;;;;;;12.12;63.15;101652.94;5110445;28;20100;-83
2023/01/07 08:36:38;;;;;;;19.17;7.95;;;;;;;12.25;63.16;101640.28;5110547;28;20530;-83
2023/01/07 08:39:04;;;;;;;14.48;6.00;;;;;;;12.35;62.33;101644.06;5110911;28;20035;-81
2023/01/07 08:41:29;;;;;;;16.88;4.53;;;;;;;12.40;61.59;101637.34;5110930;28;20126;-83
2023/01/07 08:43:55;;;;;;;11.57;4.70;;;;;;;12.51;61.52;101639.25;5111064;28;20047;-84
2023/01/07 08:46:20;;;;;;;13.32;5.20;;;;;;;12.57;61.37;101645.06;5117274;28;20474;-84
2023/01/07 08:48:46;;;;;;;11.70;5.80;;;;;;;12.74;61.05;101646.53;5120099;28;20050;-84
2023/01/07 08:51:12;;;;;;;39.42;7.03;;;;;;;12.80;60.73;101646.06;5119905;28;20056;-84
2023/01/07 08:53:39;;;;;;;16.98;4.43;;;;;;;12.88;60.50;101624.75;5116464;28;20552;-83
2023/01/07 08:56:04;;;;;;;11.27;5.55;;;;;;;13.08;60.02;101632.25;5110164;28;20107;-84
2023/01/07 08:58:30;;;;;;;11.30;3.60;;;;;;;13.07;59.33;101617.00;5110484;28;20518;-83
2023/01/07 09:01:04;;;;;;;10.93;4.68;;;;;;;13.26;58.92;101621.00;5110202;28;20486;-85
2023/01/07 09:03:30;;;;;;;14.50;5.35;;;;;;;13.40;58.20;101604.59;5110537;28;20383;-82
2023/01/07 09:05:55;;;;;;;21.52;4.20;;;;;;;13.57;58.07;101612.25;5110345;28;20043;-83
2023/01/07 09:08:20;;;;;;;20.58;5.47;;;;;;;13.61;56.90;101605.63;5110303;28;20111;-82
2023/01/07 09:10:46;;;;;;;25.58;6.65;;;;;;;13.66;56.52;101597.16;5110563;28;20032;-84
2023/01/07 09:13:11;;;;;;;16.05;6.82;;;;;;;13.71;56.16;101585.00;5109928;28;20020;-84
2023/01/07 09:15:37;;;;;;;13.32;6.88;;;;;;;13.82;56.16;101601.22;5110468;28;20034;-81
2023/01/07 09:18:03;;;;;;;25.63;6.38;;;;;;;13.86;54.69;101600.00;5109896;28;20479;-80
2023/01/07 09:20:29;;;;;;;15.98;6.97;;;;;;;13.84;55.23;101598.41;5109981;28;20107;-80
2023/01/07 09:22:54;;;;;;;9.77;4.65;;;;;;;13.76;56.42;101595.47;5110359;28;20099;-84
2023/01/07 09:25:19;;;;;;;61.80;6.10;;;;;;;13.75;56.73;101597.28;5108391;28;20156;-79
2023/01/07 09:27:45;;;;;;;37.28;5.75;;;;;;;13.73;57.28;101585.72;5109496;28;20035;-82
2023/01/07 09:30:11;;;;;;;28.08;4.72;;;;;;;13.76;57.10;101588.19;5109383;28;20034;-87
2023/01/07 09:32:37;;;;;;;12.68;4.40;;;;;;;13.68;57.17;101585.22;5109242;28;20471;-84
2023/01/07 09:35:04;;;;;;;15.20;4.72;;;;;;;13.56;57.32;101578.97;5109231;28;20031;-81
2023/01/07 09:37:29;;;;;;;9.93;4.30;;;;;;;13.61;57.25;101567.78;5108748;28;20024;-80
2023/01/07 09:39:55;;;;;;;25.80;8.13;;;;;;;13.66;56.50;101560.19;5109954;28;20448;-86
2023/01/07 09:42:56;;;;;;;20.73;5.30;;;;;;;13.85;55.98;101563.09;5112919;28;20028;-81
2023/01/07 09:45:36;;;;;;;17.65;6.47;;;;;;;13.98;54.82;101555.72;5011398;28;20045;-82
2023/01/07 09:48:08;;;;;;;23.65;5.78;;;;;;;13.89;55.35;101534.84;5010063;28;20042;-80
2023/01/07 09:50:43;;;;;;;24.92;6.30;;;;;;;13.98;55.81;101549.47;5009233;28;20054;-80
2023/01/07 09:53:35;;;;;;;14.27;6.00;;;;;;;13.97;52.84;101548.63;5009542;28;20037;-81
2023/01/07 09:56:03;;;;;;;16.23;5.32;;;;;;;13.82;52.68;101530.91;5009181;28;20111;-80
2023/01/07 09:58:28;;;;;;;16.55;4.13;;;;;;;14.01;51.47;101538.41;5009354;28;20030;-79
2023/01/07 10:00:56;;;;;;;12.35;5.00;;;;;;;13.83;50.95;101540.75;5008853;28;20045;-81
2023/01/07 10:03:49;;;;;;;20.60;4.95;;;;;;;13.80;51.15;101534.72;5008947;28;20121;-79
2023/01/07 10:06:24;;;;;;;17.95;5.28;;;;;;;13.96;50.89;101529.81;5010276;28;20135;-79
2023/01/07 10:09:01;;;;;;;9.48;5.03;;;;;;;14.07;50.20;101533.34;5009671;28;20519;-84
2023/01/07 10:11:56;;;;;;;14.02;6.18;;;;;;;14.03;50.25;101531.03;5010081;28;20074;-80
2023/01/07 10:14:43;;;;;;;14.35;5.53;;;;;;;14.06;49.83;101520.84;5009094;28;20580;-81
2023/01/07 10:17:27;;;;;;;11.43;6.78;;;;;;;14.19;50.35;101512.53;4976414;28;20046;-81
2023/01/07 10:20:02;;;;;;;24.25;8.10;;;;;;;14.26;50.18;101513.75;5009420;28;20036;-80
2023/01/07 10:22:51;;;;;;;16.42;8.25;;;;;;;14.33;49.51;101512.31;5079123;28;20048;-80
2023/01/07 10:25:25;;;;;;;18.85;8.43;;;;;;;14.33;49.58;101515.00;5111504;28;20023;-79
2023/01/07 10:27:54;;;;;;;17.80;8.45;;;;;;;14.33;49.46;101506.03;5111105;28;20027;-80
2023/01/07 10:30:24;;;;;;;18.17;8.07;;;;;;;14.31;49.31;101497.16;5108846;28;20512;-79
2023/01/07 10:33:00;;;;;;;13.40;7.90;;;;;;;14.27;49.21;101490.28;5112628;28;20035;-80
2023/01/07 10:35:26;;;;;;;19.98;9.70;;;;;;;14.26;49.43;101492.13;5112546;28;20027;-83
2023/01/07 10:37:56;;;;;;;15.88;8.82;;;;;;;14.21;49.43;101490.78;5112382;28;20050;-81
2023/01/07 10:40:37;;;;;;;20.85;8.52;;;;;;;14.28;49.21;101482.00;5112567;28;20024;-83
2023/01/07 10:43:32;;;;;;;20.67;9.40;;;;;;;14.35;49.28;101477.84;5113799;28;20031;-83
2023/01/07 10:46:25;;;;;;;20.38;9.45;;;;;;;14.44;49.21;101478.91;5112651;28;20112;-83
2023/01/07 10:49:17;;;;;;;18.98;9.18;;;;;;;14.44;49.13;101481.63;5112692;28;20085;-83
2023/01/07 10:51:57;;;;;;;20.05;6.97;;;;;;;14.29;48.60;101467.50;5065508;28;20254;-81
2023/01/07 10:54:22;;;;;;;12.40;6.90;;;;;;;14.35;48.59;101482.41;5069412;28;20120;-80
2023/01/07 10:56:57;;;;;;;25.65;8.38;;;;;;;14.38;48.59;101472.19;5070345;28;20072;-84
2023/01/07 10:59:23;;;;;;;20.15;7.07;;;;;;;14.46;48.27;101466.97;5071899;28;20036;-82
2023/01/07 11:01:55;;;;;;;15.98;6.93;;;;;;;14.50;48.04;101459.44;5074396;28;20041;-82
2023/01/07 11:04:20;;;;;;;21.50;7.53;;;;;;;14.37;47.96;101453.38;5086760;28;20105;-86
2023/01/07 11:06:45;;;;;;;26.08;8.18;;;;;;;14.38;48.19;101465.91;5089893;28;20036;-86
2023/01/07 11:09:19;;;;;;;35.70;11.02;;;;;;;14.41;48.32;101460.22;5084170;28;20088;-82
2023/01/07 11:11:46;;;;;;;27.52;13.85;;;;;;;14.42;47.97;101452.00;5072598;28;20447;-83
2023/01/07 11:14:18;;;;;;;55.60;26.60;;;;;;;14.56;48.90;101448.09;5068664;28;20181;-81
2023/01/07 11:17:01;;;;;;;24.05;10.63;;;;;;;14.67;47.80;101451.63;5068569;28;20420;-78
2023/01/07 11:19:43;;;;;;;21.25;8.40;;;;;;;14.86;47.62;101442.75;5068874;28;20041;-82
2023/01/07 11:22:41;;;;;;;15.65;7.53;;;;;;;15.10;46.54;101437.09;5078665;28;20115;-82
2023/01/07 11:25:32;;;;;;;13.57;7.53;;;;;;;15.24;46.45;101442.16;5018358;28;20453;-87
2023/01/07 11:28:02;;;;;;;14.65;8.48;;;;;;;15.23;46.16;101432.28;4971455;28;20396;-91
2023/01/07 11:30:31;;;;;;;17.02;8.88;;;;;;;15.35;46.01;101431.19;4970794;28;20118;-90
2023/01/07 11:33:03;;;;;;;16.35;8.20;;;;;;;15.48;46.14;101431.00;4971230;28;20041;-88